Sarasota, FL

5:48 PM EDT on March 27, 2015 (GMT -0400)
Sarasota-bradenton | | Change Station
CLOSE
Current Station
Airport
Location: Sarasota,
Elevation: 30 ft
Nearby Weather Stations
Active Advisory: Beach Hazard Statement

Elev 30 ft 27.40 °N, 82.56 °W | Updated 20 minutes ago

Mostly Cloudy
Mostly Cloudy
71 °F
Feels Like 71 °F
N
17
Wind Variable Wind from WSW
Gusts 23 mph

Today
High -- | Low -- °F
--% Chance of Precip.
Yesterday
High -- | Low -- °F
Precip. -- in
7:26 AM 7:44 PM
First Quarter, 56% visible
Pressure 29.84 in
Visibility 10.0 miles
Clouds Scattered Clouds 1200 ft
Mostly Cloudy 12000 ft
Dew Point 67 °F
Humidity 87%
Rainfall 0.57 in
Snow Depth Not available.
UV 2 out of 12
Pollen 5.00 out of 12
Air Quality Not available.
Flu Activity Not available.
SPECI KSRQ 272128Z 25015G20KT 10SM SCT012 BKN120 22/19 A2984 RMK AO2 RAE28 P0000 T02170194

More Conditions Fewer Conditions

Pressure 29.84 in
Visibility 10.0 miles
Clouds Scattered Clouds 1200 ft
Mostly Cloudy 12000 ft
Dew Point 67 °F
Humidity 87%
Rainfall 0.57 in
Snow Depth Not available.
UV 2 out of 12
Pollen 5.00 out of 12
Air Quality Not available.
Flu Activity Not available.
SPECI KSRQ 272128Z 25015G20KT 10SM SCT012 BKN120 22/19 A2984 RMK AO2 RAE28 P0000 T02170194

More Conditions Fewer Conditions

10-Day Weather Forecast

Almanac

Astronomy

Mar. 27, 2015 Rise Set
Actual Time
Civil Twilight
Nautical Twilight
Astronomical Twilight
Moon
Length of Visible Light
Length of Day
Tomorrow will be .
, % of the Moon is Illuminated

Today's Extremes

State Highs State Lows

Community

WunderPhotos

Upload Photos

1,808,834 photos uploaded!

WunderBlogs® & News

Nearby

Air Quality

  Air Quality AQ Index Pollutant
Not available.

Snow Depth

Station Depth Elevation

Earthquake Activity

City Distance Mag. Time & Date
Minimum magnitude displayed is 2.5.

Coastal Water Temperatures

Place Temperature

Stations

Nearby Weather Stations

Station Location Temp. Windchill Dew Point Humidity Wind Precip. Elev Updated Type
                   
Beach Hazard Statement
Statement as of 5:14 AM EDT on March 27, 2015

... Beach hazards statement in effect from noon EDT today through
this evening...

The National Weather Service in Tampa Bay Ruskin has issued a
beach hazards statement for a moderate risk of rip currents which
is in effect from noon EDT today through this evening.

* Hazards... moderate risk of rip currents.

* Timing... from noon through this evening.

* Location... area beaches from Pinellas to Lee counties.

Precautionary/preparedness actions...

A moderate risk of rip currents means wind and or wave conditions
support stronger or more frequent rip currents. Always have a
flotation device with you in the water.



Http://www.Weather.Gov/Tampa